createdAt,value
2023-04-21T00:00:57.096Z,101190.63
2023-04-21T00:03:28.345Z,101186.19
2023-04-21T00:06:01.668Z,101175.56
2023-04-21T00:08:31.457Z,101183.00
2023-04-21T00:11:01.240Z,101161.38
2023-04-21T00:13:31.054Z,101122.25
2023-04-21T00:16:00.775Z,101167.84
2023-04-21T00:18:30.614Z,101168.78
2023-04-21T00:21:03.069Z,101161.88
2023-04-21T00:23:32.848Z,101137.41
2023-04-21T00:26:03.244Z,101157.41
2023-04-21T00:28:33.156Z,101147.88
2023-04-21T00:31:02.965Z,101140.31
2023-04-21T00:33:32.795Z,101139.00
2023-04-21T00:36:05.087Z,101140.00
2023-04-21T00:38:34.849Z,101138.03
2023-04-21T00:41:04.596Z,101126.78
2023-04-21T00:43:34.358Z,101134.69
2023-04-21T00:46:04.167Z,101125.72
2023-04-21T00:48:34.624Z,101072.69
2023-04-21T00:51:07.140Z,101136.56
2023-04-21T00:53:37.834Z,101116.69
2023-04-21T00:56:09.405Z,101115.09
2023-04-21T00:58:41.707Z,101120.25
2023-04-21T01:01:11.510Z,101097.66
2023-04-21T01:03:41.484Z,101112.47
2023-04-21T01:06:15.436Z,101131.47
2023-04-21T01:08:45.650Z,101120.75
2023-04-21T01:11:18.779Z,101132.19
2023-04-21T01:13:48.522Z,101123.75
2023-04-21T01:16:21.901Z,101107.09
2023-04-21T01:18:52.228Z,101104.84
2023-04-21T01:21:24.856Z,101125.00
2023-04-21T01:23:57.557Z,101126.75
2023-04-21T01:26:27.290Z,101130.25
2023-04-21T01:28:59.935Z,101130.91
2023-04-21T01:31:29.823Z,101109.53
2023-04-21T01:33:59.637Z,101081.09
2023-04-21T01:36:29.468Z,101081.97
2023-04-21T01:39:01.828Z,101115.16
2023-04-21T01:41:32.939Z,101119.34
2023-04-21T01:44:02.711Z,101102.00
2023-04-21T01:46:34.177Z,101115.31
2023-04-21T01:49:04.099Z,101102.44
2023-04-21T01:51:36.164Z,101111.22
2023-04-21T01:54:08.623Z,101101.69
2023-04-21T01:56:38.439Z,101097.56
2023-04-21T01:59:08.224Z,101075.91
2023-04-21T02:01:38.370Z,101092.53
2023-04-21T02:04:08.581Z,101098.66
2023-04-21T02:06:38.565Z,101101.22
2023-04-21T02:09:12.446Z,101094.63
2023-04-21T02:11:42.529Z,101096.50
2023-04-21T02:14:12.352Z,101106.94
2023-04-21T02:16:43.582Z,101100.38
2023-04-21T02:19:13.374Z,101112.66
2023-04-21T02:21:43.094Z,101092.69
2023-04-21T02:24:15.514Z,101108.31
2023-04-21T02:26:45.407Z,101122.22
2023-04-21T02:29:15.186Z,101125.63
2023-04-21T02:31:58.850Z,101119.81
2023-04-21T02:34:33.043Z,101128.28
2023-04-21T02:37:02.781Z,101138.41
2023-04-21T02:39:35.077Z,101131.59
2023-04-21T02:42:04.875Z,101122.84
2023-04-21T02:44:34.611Z,101137.19
2023-04-21T02:47:04.350Z,101130.47
2023-04-21T02:49:34.071Z,101075.91
2023-04-21T02:52:03.771Z,101129.34
2023-04-21T02:54:36.129Z,101129.47
2023-04-21T02:57:06.300Z,101110.88
2023-04-21T02:59:36.466Z,101136.81
2023-04-21T03:02:06.508Z,101137.38
2023-04-21T03:04:36.463Z,101135.53
2023-04-21T03:07:07.362Z,101121.56
2023-04-21T03:09:39.676Z,101141.59
2023-04-21T03:12:09.719Z,101133.69
2023-04-21T03:14:39.471Z,101124.03
2023-04-21T03:17:09.855Z,101095.13
2023-04-21T03:19:39.611Z,101122.69
2023-04-21T03:22:09.704Z,101121.53
2023-04-21T03:24:42.019Z,101114.53
2023-04-21T03:27:11.775Z,101094.75
2023-04-21T03:29:41.630Z,101123.84
2023-04-21T03:32:11.546Z,101119.78
2023-04-21T03:34:41.357Z,101113.59
2023-04-21T03:37:12.001Z,101119.47
2023-04-21T03:39:44.346Z,101114.28
2023-04-21T03:42:14.442Z,101097.41
2023-04-21T03:44:44.245Z,101109.56
2023-04-21T03:47:13.990Z,101114.72
2023-04-21T03:49:43.704Z,101101.03
2023-04-21T03:52:13.425Z,101117.97
2023-04-21T03:54:45.735Z,101095.94
2023-04-21T03:57:16.072Z,101115.28
2023-04-21T03:59:46.657Z,101108.97
2023-04-21T04:02:16.458Z,101075.91
2023-04-21T04:04:46.322Z,101114.16
2023-04-21T04:07:17.767Z,101108.13
2023-04-21T04:09:50.071Z,101112.66
2023-04-21T04:12:19.785Z,101117.63
2023-04-21T04:14:49.528Z,101111.63
2023-04-21T04:17:19.284Z,101104.94
2023-04-21T04:19:48.987Z,101107.69
2023-04-21T04:22:19.427Z,101085.53
2023-04-21T04:24:51.769Z,101106.97
2023-04-21T04:27:21.660Z,101098.31
2023-04-21T04:29:51.658Z,101101.41
2023-04-21T04:32:21.929Z,101093.56
2023-04-21T04:34:52.515Z,101100.81
2023-04-21T04:37:22.229Z,101101.56
2023-04-21T04:39:56.773Z,101092.91
2023-04-21T04:42:26.733Z,101081.38
2023-04-21T04:44:57.506Z,101079.75
2023-04-21T04:47:27.358Z,101110.09
2023-04-21T04:49:57.112Z,101096.19
2023-04-21T04:52:27.056Z,101109.47
2023-04-21T04:54:59.381Z,101111.25
2023-04-21T04:57:29.115Z,101104.81
2023-04-21T04:59:59.023Z,101092.53
2023-04-21T05:02:28.932Z,101108.03
2023-04-21T05:04:59.272Z,101090.88
2023-04-21T05:07:29.046Z,101098.34
2023-04-21T05:10:01.444Z,101049.28
2023-04-21T05:12:31.227Z,101106.50
2023-04-21T05:15:01.108Z,101057.28
2023-04-21T05:17:31.412Z,101114.63
2023-04-21T05:20:01.301Z,101117.25
2023-04-21T05:22:31.217Z,101097.47
2023-04-21T05:25:03.518Z,101110.63
2023-04-21T05:27:34.171Z,101103.94
2023-04-21T05:30:03.886Z,101103.88
2023-04-21T05:32:34.311Z,101111.81
2023-04-21T05:35:04.296Z,101105.81
2023-04-21T05:37:34.031Z,101109.09
2023-04-21T05:40:06.784Z,101107.84
2023-04-21T05:42:36.569Z,101105.50
2023-04-21T05:45:07.537Z,101118.97
2023-04-21T05:47:37.644Z,101097.31
2023-04-21T05:50:08.118Z,101108.78
2023-04-21T05:52:38.141Z,101100.16
2023-04-21T05:55:10.856Z,101105.94
2023-04-21T05:57:40.561Z,101101.59
2023-04-21T06:00:12.016Z,101095.97
2023-04-21T06:02:41.967Z,101111.66
2023-04-21T06:05:11.804Z,101111.22
2023-04-21T06:07:41.728Z,101116.56
2023-04-21T06:10:16.187Z,101105.63
2023-04-21T06:12:46.038Z,101114.72
2023-04-21T06:15:15.874Z,101113.56
2023-04-21T06:17:45.627Z,101097.09
2023-04-21T06:20:15.630Z,101108.22
2023-04-21T06:22:45.351Z,101131.13
2023-04-21T06:25:17.753Z,101108.34
2023-04-21T06:27:48.278Z,101110.56
2023-04-21T06:30:18.424Z,101124.41
2023-04-21T06:32:48.828Z,101099.81
2023-04-21T06:35:20.683Z,101093.13
2023-04-21T06:37:50.518Z,101094.50
2023-04-21T06:40:22.981Z,101081.94
2023-04-21T06:42:52.731Z,101110.91
2023-04-21T06:45:22.672Z,101105.53
2023-04-21T06:47:52.427Z,101087.38
2023-04-21T06:50:22.190Z,101090.84
2023-04-21T06:52:51.940Z,101096.53
2023-04-21T06:55:24.334Z,101109.53
2023-04-21T06:57:54.079Z,101101.53
2023-04-21T07:00:23.837Z,101094.44
2023-04-21T07:02:53.720Z,101104.72
2023-04-21T07:05:23.530Z,101099.72
2023-04-21T07:07:53.694Z,101108.50
2023-04-21T07:10:26.184Z,101078.09
2023-04-21T07:12:56.041Z,101087.13
2023-04-21T07:15:25.886Z,101074.03
2023-04-21T07:17:55.786Z,101084.56
2023-04-21T07:20:25.510Z,101091.50
2023-04-21T07:22:55.274Z,101093.25
2023-04-21T07:25:27.623Z,101067.56
2023-04-21T07:27:57.384Z,101088.44
2023-04-21T07:30:27.328Z,101087.78
2023-04-21T07:32:57.157Z,101086.88
2023-04-21T07:35:27.012Z,101082.63
2023-04-21T07:37:57.044Z,101073.03
2023-04-21T07:40:30.682Z,101088.38
2023-04-21T07:43:00.440Z,101078.31
2023-04-21T07:45:30.161Z,101075.09
2023-04-21T07:47:59.924Z,101067.41
2023-04-21T07:50:29.855Z,101071.75
2023-04-21T07:52:59.637Z,101062.38
2023-04-21T07:55:32.511Z,101065.19
2023-04-21T07:58:02.315Z,101029.81
2023-04-21T08:00:32.048Z,101067.13
2023-04-21T08:03:01.927Z,101063.84
2023-04-21T08:05:35.030Z,101053.28
2023-04-21T08:08:08.108Z,101022.31
2023-04-21T08:10:40.423Z,101062.88
2023-04-21T08:13:10.729Z,101051.97
2023-04-21T08:15:40.569Z,101054.03
2023-04-21T08:18:11.685Z,101025.63
2023-04-21T08:20:41.489Z,101055.06
2023-04-21T08:23:11.260Z,101040.66
2023-04-21T08:25:43.695Z,101050.31
2023-04-21T08:28:14.356Z,101032.44
2023-04-21T08:30:44.390Z,101049.81
2023-04-21T08:33:14.210Z,101042.84
2023-04-21T08:35:59.161Z,101048.13
2023-04-21T08:38:31.388Z,101038.56
2023-04-21T08:41:06.418Z,101043.00
2023-04-21T08:43:36.189Z,101037.13
2023-04-21T08:46:10.084Z,101046.00
2023-04-21T08:48:40.841Z,101045.16
2023-04-21T08:51:12.438Z,101049.44
2023-04-21T08:53:44.856Z,101036.78
2023-04-21T08:56:17.203Z,101033.59
2023-04-21T08:58:47.000Z,101030.25
2023-04-21T09:01:16.940Z,101018.28
2023-04-21T09:03:47.211Z,101040.69
2023-04-21T09:06:17.467Z,101038.19
2023-04-21T09:08:56.738Z,101038.25
2023-04-21T09:11:29.097Z,101027.22
2023-04-21T09:14:00.755Z,101006.59
2023-04-21T09:16:36.042Z,100998.88
2023-04-21T09:19:05.816Z,101033.38
2023-04-21T09:21:35.558Z,101025.72
2023-04-21T09:24:08.885Z,101040.38
2023-04-21T09:26:41.964Z,100985.31
2023-04-21T09:29:12.182Z,101040.38
2023-04-21T09:31:42.125Z,101022.34
2023-04-21T09:34:21.808Z,101050.75
2023-04-21T09:36:52.135Z,101033.59
2023-04-21T09:39:40.475Z,101025.81
2023-04-21T09:42:18.190Z,101003.50
2023-04-21T09:44:56.308Z,101031.91
2023-04-21T09:47:42.891Z,100993.31
2023-04-21T09:50:16.374Z,101019.91
2023-04-21T09:52:48.906Z,101007.91
2023-04-21T09:55:20.132Z,101013.94
2023-04-21T09:57:54.830Z,101015.66
2023-04-21T10:00:28.821Z,101007.94
2023-04-21T10:03:01.270Z,101010.47
2023-04-21T10:05:32.066Z,100998.41
2023-04-21T10:08:02.033Z,100998.41
2023-04-21T10:10:34.399Z,100980.31
2023-04-21T10:13:07.696Z,100970.78
2023-04-21T10:15:41.433Z,100990.56
2023-04-21T10:18:16.255Z,100983.69
2023-04-21T10:20:59.564Z,100985.41
2023-04-21T10:23:34.186Z,100992.28
2023-04-21T10:26:09.634Z,100981.97
2023-04-21T10:28:47.084Z,100981.13
2023-04-21T10:31:21.532Z,100954.47
2023-04-21T10:34:15.837Z,100969.94
2023-04-21T10:36:50.219Z,100969.06
2023-04-21T10:39:30.541Z,100965.56
2023-04-21T10:42:01.487Z,100950.88
2023-04-21T10:44:34.229Z,100937.22
2023-04-21T10:47:04.001Z,100926.03
2023-04-21T10:49:33.805Z,100948.22
2023-04-21T10:52:08.374Z,100926.63
2023-04-21T10:54:46.145Z,100929.16
2023-04-21T10:57:17.931Z,100911.94
2023-04-21T10:59:51.184Z,100911.91
2023-04-21T11:02:22.177Z,100923.81
2023-04-21T11:04:54.528Z,100914.31
2023-04-21T11:07:25.752Z,100906.59
2023-04-21T11:10:00.525Z,100910.81
2023-04-21T11:12:32.164Z,100888.38
2023-04-21T11:15:07.597Z,100895.19
2023-04-21T11:17:39.407Z,100904.66
2023-04-21T11:20:10.931Z,100877.09
2023-04-21T11:22:40.903Z,100886.34
2023-04-21T11:25:20.112Z,100849.34
2023-04-21T11:27:57.515Z,100882.59
2023-04-21T11:30:36.999Z,100868.94
2023-04-21T11:33:07.117Z,100862.81
2023-04-21T11:35:43.722Z,100850.81
2023-04-21T11:38:14.989Z,100850.63
2023-04-21T11:40:49.372Z,100847.31
2023-04-21T11:43:19.344Z,100823.28
2023-04-21T11:45:54.227Z,100847.91
2023-04-21T11:48:24.007Z,100801.69
2023-04-21T11:50:53.861Z,100835.75
2023-04-21T11:53:24.026Z,100844.25
2023-04-21T11:55:57.074Z,100810.78
2023-04-21T11:58:27.052Z,100836.47
2023-04-21T12:00:59.403Z,100783.44
2023-04-21T12:03:29.463Z,100829.59
2023-04-21T12:06:00.133Z,100790.88
2023-04-21T12:08:32.521Z,100833.81
2023-04-21T12:11:03.037Z,100839.88
2023-04-21T12:13:33.278Z,100837.28
2023-04-21T12:16:08.911Z,100846.63
2023-04-21T12:18:39.174Z,100833.75
2023-04-21T12:21:09.193Z,100826.84
2023-04-21T12:23:39.380Z,100819.09
2023-04-21T12:26:09.206Z,100829.97
2023-04-21T12:28:39.106Z,100833.50
2023-04-21T12:31:11.589Z,100841.97
2023-04-21T12:33:41.909Z,100820.50
2023-04-21T12:36:11.731Z,100812.66
2023-04-21T12:38:41.782Z,100822.31
2023-04-21T12:41:11.534Z,100831.78
2023-04-21T12:43:41.283Z,100814.66
2023-04-21T12:46:13.707Z,100822.28
2023-04-21T12:48:43.581Z,100817.91
2023-04-21T12:51:13.331Z,100800.81
2023-04-21T12:53:43.144Z,100797.25
2023-04-21T12:56:13.240Z,100768.25
2023-04-21T12:58:43.078Z,100811.84
2023-04-21T13:01:16.268Z,100792.75
2023-04-21T13:03:46.149Z,100815.84
2023-04-21T13:06:16.164Z,100785.78
2023-04-21T13:08:45.907Z,100784.81
2023-04-21T13:11:15.685Z,100798.31
2023-04-21T13:13:45.401Z,100787.06
2023-04-21T13:16:18.398Z,100768.03
2023-04-21T13:18:48.925Z,100773.16
2023-04-21T13:21:18.718Z,100767.84
2023-04-21T13:23:48.576Z,100778.59
2023-04-21T13:26:18.815Z,100776.78
2023-04-21T13:28:48.606Z,100762.63
2023-04-21T13:31:21.135Z,100770.81
2023-04-21T13:33:53.027Z,100769.22
2023-04-21T13:36:23.683Z,100754.44
2023-04-21T13:38:54.131Z,100736.56
2023-04-21T13:41:23.884Z,100740.91
2023-04-21T13:43:53.605Z,100748.59
2023-04-21T13:46:25.952Z,100710.06
2023-04-21T13:48:55.743Z,100733.31
2023-04-21T13:51:25.626Z,100726.25
2023-04-21T13:53:55.360Z,100734.00
2023-04-21T13:56:25.653Z,100706.47
2023-04-21T13:58:55.396Z,100728.69
2023-04-21T14:01:27.951Z,100723.13
2023-04-21T14:03:57.866Z,100723.41
2023-04-21T14:06:28.122Z,100723.34
2023-04-21T14:08:57.876Z,100709.56
2023-04-21T14:11:27.669Z,100698.69
2023-04-21T14:14:09.114Z,100715.84
2023-04-21T14:16:42.281Z,100706.13
2023-04-21T14:19:12.057Z,100696.53
2023-04-21T14:21:41.759Z,100706.81
2023-04-21T14:24:11.913Z,100705.28
2023-04-21T14:26:41.652Z,100706.16
2023-04-21T14:29:11.395Z,100692.38
2023-04-21T14:31:43.799Z,100677.59
2023-04-21T14:34:13.650Z,100684.56
2023-04-21T14:36:43.556Z,100685.59
2023-04-21T14:39:13.296Z,100682.31
2023-04-21T14:41:43.024Z,100682.47
2023-04-21T14:44:12.873Z,100684.16
2023-04-21T14:46:53.336Z,100679.84
2023-04-21T14:49:31.500Z,100691.88
2023-04-21T14:52:01.467Z,100686.00
2023-04-21T14:54:31.237Z,100655.09
2023-04-21T14:57:17.561Z,100680.69
2023-04-21T14:59:48.333Z,100670.06
2023-04-21T15:02:22.040Z,100663.88
2023-04-21T15:04:52.776Z,100644.28
2023-04-21T15:07:24.858Z,100662.06
2023-04-21T15:09:55.644Z,100670.31
2023-04-21T15:12:25.506Z,100660.38
2023-04-21T15:14:55.301Z,100639.00
2023-04-21T15:17:27.723Z,100653.59
2023-04-21T15:19:57.477Z,100624.72
2023-04-21T15:22:27.475Z,100613.88
2023-04-21T15:24:57.334Z,100635.25
2023-04-21T15:27:27.064Z,100645.53
2023-04-21T15:29:56.941Z,100634.13
2023-04-21T15:32:29.396Z,100610.84
2023-04-21T15:34:59.163Z,100589.34
2023-04-21T15:37:28.927Z,100635.47
2023-04-21T15:39:58.897Z,100618.41
2023-04-21T15:42:28.798Z,100619.94
2023-04-21T15:44:58.698Z,100619.19
2023-04-21T15:47:32.138Z,100624.38
2023-04-21T15:50:02.003Z,100620.00
2023-04-21T15:52:31.945Z,100603.66
2023-04-21T15:55:01.708Z,100617.50
2023-04-21T15:57:31.555Z,100609.00
2023-04-21T16:00:01.343Z,100609.56
2023-04-21T16:02:34.100Z,100597.59
2023-04-21T16:05:04.272Z,100606.97
2023-04-21T16:07:34.436Z,100611.00
2023-04-21T16:10:04.378Z,100593.13
2023-04-21T16:12:34.161Z,100586.53
2023-04-21T16:15:20.152Z,100604.63
2023-04-21T16:17:55.888Z,100580.63
2023-04-21T16:20:25.685Z,100580.59
2023-04-21T16:22:55.446Z,100591.72
2023-04-21T16:25:25.221Z,100583.13
2023-04-21T16:27:55.245Z,100559.28
2023-04-21T16:30:25.162Z,100580.63
2023-04-21T16:32:57.436Z,100552.41
2023-04-21T16:35:27.337Z,100576.28
2023-04-21T16:37:57.376Z,100576.97
2023-04-21T16:40:27.803Z,100529.19
2023-04-21T16:42:57.619Z,100562.56
2023-04-21T16:45:27.412Z,100549.13
2023-04-21T16:48:00.173Z,100553.31
2023-04-21T16:50:30.271Z,100567.09
2023-04-21T16:52:59.999Z,100569.69
2023-04-21T16:55:31.585Z,100555.94
2023-04-21T16:58:02.203Z,100552.56
2023-04-21T17:00:32.105Z,100487.53
2023-04-21T17:03:04.636Z,100529.41
2023-04-21T17:05:34.478Z,100533.66
2023-04-21T17:08:05.590Z,100541.44
2023-04-21T17:10:35.492Z,100537.25
2023-04-21T17:13:06.243Z,100525.31
2023-04-21T17:15:36.277Z,100544.25
2023-04-21T17:18:08.793Z,100545.06
2023-04-21T17:20:38.737Z,100518.63
2023-04-21T17:23:08.481Z,100511.81
2023-04-21T17:25:38.324Z,100513.63
2023-04-21T17:28:08.503Z,100545.47
2023-04-21T17:30:38.704Z,100536.13
2023-04-21T17:33:17.002Z,100533.50
2023-04-21T17:36:02.098Z,100526.53
2023-04-21T17:38:32.462Z,100494.19
2023-04-21T17:41:03.117Z,100525.00
2023-04-21T17:43:32.877Z,100518.19
2023-04-21T17:46:02.713Z,100526.72
2023-04-21T17:48:35.084Z,100519.22
2023-04-21T17:51:04.855Z,100533.78
2023-04-21T17:53:34.853Z,100514.31
2023-04-21T17:56:04.774Z,100524.53
2023-04-21T17:58:34.800Z,100533.22
2023-04-21T18:01:04.556Z,100533.19
2023-04-21T18:03:41.453Z,100515.25
2023-04-21T18:06:16.073Z,100529.09
2023-04-21T18:08:46.020Z,100523.19
2023-04-21T18:11:16.162Z,100528.31
2023-04-21T18:13:45.954Z,100521.59
2023-04-21T18:16:15.767Z,100540.50
2023-04-21T18:18:48.119Z,100516.81
2023-04-21T18:21:17.897Z,100522.84
2023-04-21T18:23:47.783Z,100537.28
2023-04-21T18:26:17.566Z,100523.72
2023-04-21T18:28:47.405Z,100521.97
2023-04-21T18:31:17.588Z,100517.00
2023-04-21T18:33:50.299Z,100516.16
2023-04-21T18:36:20.222Z,100528.28
2023-04-21T18:38:50.488Z,100511.19
2023-04-21T18:41:20.513Z,100529.28
2023-04-21T18:43:50.542Z,100525.97
2023-04-21T18:46:20.334Z,100530.25
2023-04-21T18:48:53.391Z,100521.66
2023-04-21T18:51:23.131Z,100536.22
2023-04-21T18:53:52.905Z,100531.16
2023-04-21T18:56:22.618Z,100531.19
2023-04-21T18:58:52.336Z,100520.94
2023-04-21T19:01:22.154Z,100536.44
2023-04-21T19:03:54.951Z,100538.16
2023-04-21T19:06:24.785Z,100544.22
2023-04-21T19:08:55.138Z,100544.16
2023-04-21T19:11:24.865Z,100518.66
2023-04-21T19:13:54.706Z,100526.41
2023-04-21T19:16:24.510Z,100514.41
2023-04-21T19:18:57.226Z,100554.72
2023-04-21T19:21:26.983Z,100535.91
2023-04-21T19:23:57.907Z,100552.13
2023-04-21T19:26:27.942Z,100534.13
2023-04-21T19:28:57.736Z,100546.13
2023-04-21T19:31:28.381Z,100543.69
2023-04-21T19:34:00.799Z,100536.00
2023-04-21T19:36:31.626Z,100539.41
2023-04-21T19:39:01.838Z,100540.31
2023-04-21T19:41:31.888Z,100536.06
2023-04-21T19:44:01.759Z,100525.00
2023-04-21T19:46:32.369Z,100541.31
2023-04-21T19:49:04.719Z,100549.03
2023-04-21T19:51:34.541Z,100545.66
2023-04-21T19:54:11.266Z,100523.44
2023-04-21T19:56:42.267Z,100543.97
2023-04-21T19:59:12.026Z,100543.16
2023-04-21T20:01:41.786Z,100539.72
2023-04-21T20:04:14.265Z,100550.88
2023-04-21T20:06:44.355Z,100533.69
2023-04-21T20:09:14.133Z,100536.34
2023-04-21T20:11:43.938Z,100542.38
2023-04-21T20:14:14.063Z,100544.06
2023-04-21T20:16:46.176Z,100536.31
2023-04-21T20:19:19.062Z,100537.22
2023-04-21T20:21:49.923Z,100532.97
2023-04-21T20:24:19.690Z,100527.00
2023-04-21T20:26:49.452Z,100529.56
2023-04-21T20:29:19.241Z,100509.03
2023-04-21T20:31:48.979Z,100531.28
2023-04-21T20:34:21.364Z,100523.56
2023-04-21T20:36:51.786Z,100526.19
2023-04-21T20:39:21.618Z,100534.75
2023-04-21T20:42:04.704Z,100527.06
2023-04-21T20:44:42.855Z,100534.84
2023-04-21T20:47:13.431Z,100537.41
2023-04-21T20:49:47.610Z,100512.63
2023-04-21T20:52:18.206Z,100512.59
2023-04-21T20:54:47.934Z,100493.78
2023-04-21T20:57:18.210Z,100532.31
2023-04-21T20:59:48.013Z,100523.69
2023-04-21T21:02:17.833Z,100514.31
2023-04-21T21:04:50.350Z,100528.06
2023-04-21T21:07:20.125Z,100521.22
2023-04-21T21:09:49.864Z,100499.00
2023-04-21T21:12:19.677Z,100522.09
2023-04-21T21:14:49.493Z,100520.38
2023-04-21T21:17:19.351Z,100527.28
2023-04-21T21:19:51.845Z,100516.19
2023-04-21T21:22:21.569Z,100520.47
2023-04-21T21:24:51.424Z,100493.94
2023-04-21T21:27:21.372Z,100512.78
2023-04-21T21:29:51.620Z,100509.41
2023-04-21T21:32:21.534Z,100484.56
2023-04-21T21:34:53.953Z,100478.56
2023-04-21T21:37:24.594Z,100491.44
2023-04-21T21:39:55.473Z,100493.09
2023-04-21T21:42:25.404Z,100493.13
2023-04-21T21:44:55.533Z,100505.13
2023-04-21T21:47:25.339Z,100465.81
2023-04-21T21:49:59.095Z,100494.91
2023-04-21T21:52:29.037Z,100489.75
2023-04-21T21:54:58.930Z,100499.19
2023-04-21T21:57:28.811Z,100492.31
2023-04-21T22:00:00.556Z,100488.91
2023-04-21T22:02:30.561Z,100483.78
2023-04-21T22:05:04.573Z,100488.91
2023-04-21T22:07:35.604Z,100488.91
2023-04-21T22:10:05.700Z,100489.78
2023-04-21T22:12:35.677Z,100489.78
2023-04-21T22:15:07.102Z,100492.34
2023-04-21T22:17:38.129Z,100488.13
2023-04-21T22:20:12.316Z,100486.38
2023-04-21T22:22:42.112Z,100487.06
2023-04-21T22:25:13.570Z,100488.91
2023-04-21T22:27:43.393Z,100488.94
2023-04-21T22:30:14.137Z,100476.16
2023-04-21T22:32:43.920Z,100481.28
2023-04-21T22:35:16.361Z,100488.16
2023-04-21T22:37:46.129Z,100489.88
2023-04-21T22:40:16.250Z,100474.47
2023-04-21T22:42:46.043Z,100477.03
2023-04-21T22:45:15.953Z,100482.19
2023-04-21T22:47:45.769Z,100484.75
2023-04-21T22:50:18.296Z,100483.06
2023-04-21T22:52:48.184Z,100459.88
2023-04-21T22:55:18.000Z,100483.84
2023-04-21T22:57:47.799Z,100476.13
2023-04-21T23:00:17.862Z,100479.53
2023-04-21T23:02:47.934Z,100434.03
2023-04-21T23:05:20.508Z,100463.16
2023-04-21T23:07:50.308Z,100476.03
2023-04-21T23:10:20.303Z,100482.88
2023-04-21T23:12:50.018Z,100475.19
2023-04-21T23:15:19.828Z,100473.41
2023-04-21T23:17:49.615Z,100460.56
2023-04-21T23:20:22.266Z,100469.28
2023-04-21T23:22:52.366Z,100470.06
2023-04-21T23:25:22.321Z,100454.59
2023-04-21T23:27:52.141Z,100457.97
2023-04-21T23:30:21.989Z,100463.00
2023-04-21T23:32:51.848Z,100458.72
2023-04-21T23:35:24.252Z,100453.59
2023-04-21T23:37:54.012Z,100463.81
2023-04-21T23:40:23.791Z,100447.53
2023-04-21T23:42:53.686Z,100466.28
2023-04-21T23:45:23.703Z,100456.94
2023-04-21T23:47:53.490Z,100453.41
2023-04-21T23:50:25.898Z,100442.25
2023-04-21T23:52:56.092Z,100454.28
2023-04-21T23:55:26.028Z,100458.56
2023-04-21T23:57:55.847Z,100455.94
